ANA796 RJFO-RJTT
Flight info
| Callsign | ANA796 |
|---|---|
| Flight time | 1h 11m |
| Altitude | 35000 |
| Route | FIATO Y61 KTE Y33 SHOOT Y71 XAC |
| Aircraft | A21N/M-SDE3FGHIRWY/LB1 |
Departure
| Time | 2026-05-01 08:23 |
|---|---|
| Airport | Oita Airport (RJFO) |
Arrival
| Time | 2026-05-01 09:34 |
|---|---|
| Airport | Tokyo Haneda International Airport (RJTT) |
| Time | Latitude | Longitude | Altitude | Speed | Heading |
|---|---|---|---|---|---|
| 2026-05-01 08:03 | 33.47643 | 131.73352 | 28 ft | 0 kts | 270° |
| 2026-05-01 08:14 | 33.47644 | 131.73354 | 28 ft | 1 kts | 270° |
| 2026-05-01 08:15 | 33.47644 | 131.73370 | 28 ft | 2 kts | 269° |
| 2026-05-01 08:15 | 33.47644 | 131.73406 | 28 ft | 2 kts | 269° |
| 2026-05-01 08:15 | 33.47644 | 131.73424 | 28 ft | 2 kts | 270° |
| 2026-05-01 08:16 | 33.47644 | 131.73442 | 28 ft | 2 kts | 269° |
| 2026-05-01 08:16 | 33.47645 | 131.73460 | 28 ft | 2 kts | 251° |
| 2026-05-01 08:16 | 33.47652 | 131.73476 | 28 ft | 2 kts | 235° |
| 2026-05-01 08:16 | 33.47662 | 131.73489 | 28 ft | 2 kts | 217° |
| 2026-05-01 08:17 | 33.47675 | 131.73498 | 28 ft | 2 kts | 199° |
| 2026-05-01 08:17 | 33.47690 | 131.73502 | 28 ft | 2 kts | 181° |
| 2026-05-01 08:17 | 33.47705 | 131.73502 | 28 ft | 1 kts | 179° |
| 2026-05-01 08:17 | 33.47709 | 131.73502 | 28 ft | 0 kts | 181° |
| 2026-05-01 08:19 | 33.47700 | 131.73503 | 28 ft | 3 kts | 166° |
| 2026-05-01 08:19 | 33.47660 | 131.73511 | 28 ft | 8 kts | 179° |
| 2026-05-01 08:20 | 33.47582 | 131.73509 | 28 ft | 13 kts | 181° |
| 2026-05-01 08:20 | 33.47469 | 131.73508 | 28 ft | 18 kts | 181° |
| 2026-05-01 08:20 | 33.47328 | 131.73506 | 28 ft | 22 kts | 180° |
| 2026-05-01 08:20 | 33.47158 | 131.73505 | 28 ft | 25 kts | 180° |
| 2026-05-01 08:21 | 33.46968 | 131.73505 | 28 ft | 28 kts | 180° |
| 2026-05-01 08:21 | 33.46762 | 131.73502 | 28 ft | 30 kts | 181° |
| 2026-05-01 08:21 | 33.46622 | 131.73520 | 28 ft | 14 kts | 133° |
| 2026-05-01 08:21 | 33.46606 | 131.73619 | 28 ft | 11 kts | 89° |
| 2026-05-01 08:22 | 33.46621 | 131.73694 | 28 ft | 8 kts | 32° |
| 2026-05-01 08:22 | 33.46661 | 131.73702 | 28 ft | 4 kts | 359° |
| 2026-05-01 08:22 | 33.46777 | 131.73702 | 28 ft | 46 kts | 0° |
| 2026-05-01 08:22 | 33.47351 | 131.73706 | 28 ft | 116 kts | 0° |
| 2026-05-01 08:23 | 33.48355 | 131.73717 | 48 ft | 169 kts | 358° |
| 2026-05-01 08:23 | 33.49571 | 131.73747 | 542 ft | 177 kts | 358° |
| 2026-05-01 08:23 | 33.50741 | 131.74155 | 1353 ft | 184 kts | 33° |
| 2026-05-01 08:23 | 33.51345 | 131.75488 | 2019 ft | 196 kts | 79° |
| 2026-05-01 08:24 | 33.51027 | 131.77122 | 2341 ft | 213 kts | 124° |
| 2026-05-01 08:24 | 33.50113 | 131.78581 | 2689 ft | 227 kts | 131° |
| 2026-05-01 08:24 | 33.49095 | 131.80129 | 3032 ft | 244 kts | 130° |
| 2026-05-01 08:24 | 33.48038 | 131.81807 | 3317 ft | 266 kts | 129° |
| 2026-05-01 08:25 | 33.46911 | 131.83659 | 3686 ft | 285 kts | 127° |
| 2026-05-01 08:25 | 33.45725 | 131.85664 | 4178 ft | 300 kts | 126° |
| 2026-05-01 08:25 | 33.44519 | 131.87727 | 4913 ft | 306 kts | 126° |
| 2026-05-01 08:25 | 33.43302 | 131.89821 | 5667 ft | 311 kts | 125° |
| 2026-05-01 08:26 | 33.42053 | 131.91974 | 6363 ft | 319 kts | 124° |
| 2026-05-01 08:26 | 33.40767 | 131.94188 | 7046 ft | 327 kts | 123° |
| 2026-05-01 08:26 | 33.39487 | 131.96397 | 7863 ft | 329 kts | 123° |
| 2026-05-01 08:26 | 33.38177 | 131.98656 | 8639 ft | 334 kts | 123° |
| 2026-05-01 08:27 | 33.36847 | 132.00940 | 9382 ft | 338 kts | 123° |
| 2026-05-01 08:27 | 33.35481 | 132.03284 | 10125 ft | 342 kts | 122° |
| 2026-05-01 08:27 | 33.34114 | 132.05627 | 10648 ft | 354 kts | 122° |
| 2026-05-01 08:27 | 33.32675 | 132.08105 | 10973 ft | 371 kts | 123° |
| 2026-05-01 08:28 | 33.31178 | 132.10684 | 11271 ft | 388 kts | 122° |
| 2026-05-01 08:28 | 33.29920 | 132.13600 | 11553 ft | 398 kts | 102° |
| 2026-05-01 08:28 | 33.29717 | 132.16858 | 12019 ft | 390 kts | 76° |
| 2026-05-01 08:28 | 33.30258 | 132.20000 | 12651 ft | 389 kts | 70° |
| 2026-05-01 08:29 | 33.30864 | 132.23132 | 13206 ft | 395 kts | 69° |
| 2026-05-01 08:29 | 33.31470 | 132.26384 | 13808 ft | 400 kts | 70° |
| 2026-05-01 08:29 | 33.32048 | 132.29633 | 14348 ft | 406 kts | 71° |
| 2026-05-01 08:29 | 33.32612 | 132.32959 | 14926 ft | 411 kts | 71° |
| 2026-05-01 08:30 | 33.33167 | 132.36299 | 15460 ft | 416 kts | 72° |
| 2026-05-01 08:30 | 33.33734 | 132.39734 | 15976 ft | 421 kts | 71° |
| 2026-05-01 08:30 | 33.34293 | 132.43155 | 16460 ft | 427 kts | 72° |
| 2026-05-01 08:30 | 33.35053 | 132.46578 | 16958 ft | 420 kts | 59° |
| 2026-05-01 08:31 | 33.36525 | 132.49452 | 17464 ft | 404 kts | 40° |
| 2026-05-01 08:31 | 33.38584 | 132.51645 | 17950 ft | 392 kts | 27° |
| 2026-05-01 08:31 | 33.40803 | 132.53543 | 18431 ft | 396 kts | 25° |
| 2026-05-01 08:31 | 33.43053 | 132.55440 | 18981 ft | 397 kts | 25° |
| 2026-05-01 08:32 | 33.45319 | 132.57370 | 19545 ft | 399 kts | 26° |
| 2026-05-01 08:32 | 33.47558 | 132.59303 | 20097 ft | 400 kts | 26° |
| 2026-05-01 08:32 | 33.49839 | 132.61279 | 20598 ft | 402 kts | 26° |
| 2026-05-01 08:32 | 33.52098 | 132.63251 | 21080 ft | 405 kts | 26° |
| 2026-05-01 08:33 | 33.54393 | 132.65256 | 21490 ft | 409 kts | 27° |
| 2026-05-01 08:33 | 33.56681 | 132.67258 | 21924 ft | 411 kts | 27° |
| 2026-05-01 08:33 | 33.58978 | 132.69276 | 22344 ft | 413 kts | 27° |
| 2026-05-01 08:33 | 33.61306 | 132.71321 | 22755 ft | 415 kts | 27° |
| 2026-05-01 08:34 | 33.63646 | 132.73383 | 23197 ft | 416 kts | 27° |
| 2026-05-01 08:34 | 33.65989 | 132.75447 | 23567 ft | 419 kts | 27° |
| 2026-05-01 08:34 | 33.68332 | 132.77515 | 23899 ft | 422 kts | 27° |
| 2026-05-01 08:34 | 33.70692 | 132.79597 | 24282 ft | 423 kts | 27° |
| 2026-05-01 08:35 | 33.73074 | 132.81700 | 24637 ft | 425 kts | 27° |
| 2026-05-01 08:35 | 33.75452 | 132.83797 | 24916 ft | 428 kts | 27° |
| 2026-05-01 08:35 | 33.77865 | 132.85931 | 25271 ft | 429 kts | 27° |
| 2026-05-01 08:35 | 33.80258 | 132.88052 | 25585 ft | 431 kts | 26° |
| 2026-05-01 08:36 | 33.82686 | 132.90202 | 25917 ft | 433 kts | 26° |
| 2026-05-01 08:36 | 33.85117 | 132.92346 | 26158 ft | 436 kts | 27° |
| 2026-05-01 08:36 | 33.87564 | 132.94513 | 26509 ft | 437 kts | 26° |
| 2026-05-01 08:36 | 33.89991 | 132.96664 | 26727 ft | 440 kts | 26° |
| 2026-05-01 08:37 | 33.92488 | 132.98875 | 27034 ft | 441 kts | 26° |
| 2026-05-01 08:37 | 33.94962 | 133.01073 | 27338 ft | 443 kts | 26° |
| 2026-05-01 08:37 | 33.97416 | 133.03268 | 27577 ft | 447 kts | 28° |
| 2026-05-01 08:37 | 33.99689 | 133.05937 | 27778 ft | 467 kts | 41° |
| 2026-05-01 08:38 | 34.01481 | 133.09293 | 27987 ft | 487 kts | 55° |
| 2026-05-01 08:38 | 34.02662 | 133.13194 | 28147 ft | 504 kts | 66° |
| 2026-05-01 08:38 | 34.03540 | 133.17297 | 28567 ft | 503 kts | 69° |
| 2026-05-01 08:38 | 34.04348 | 133.21347 | 29044 ft | 500 kts | 70° |
| 2026-05-01 08:39 | 34.05159 | 133.25389 | 29450 ft | 498 kts | 69° |
| 2026-05-01 08:39 | 34.05991 | 133.29437 | 29829 ft | 496 kts | 69° |
| 2026-05-01 08:39 | 34.06837 | 133.33456 | 30090 ft | 497 kts | 69° |
| 2026-05-01 08:39 | 34.07692 | 133.37488 | 30357 ft | 498 kts | 69° |
| 2026-05-01 08:40 | 34.09401 | 133.45540 | 30961 ft | 497 kts | 69° |
| 2026-05-01 08:40 | 34.10262 | 133.49603 | 31228 ft | 498 kts | 69° |
| 2026-05-01 08:40 | 34.11121 | 133.53648 | 31521 ft | 498 kts | 70° |
| 2026-05-01 08:41 | 34.11969 | 133.57651 | 31790 ft | 498 kts | 70° |
| 2026-05-01 08:41 | 34.12823 | 133.61693 | 32088 ft | 498 kts | 70° |
| 2026-05-01 08:41 | 34.13664 | 133.65707 | 32402 ft | 498 kts | 71° |
| 2026-05-01 08:41 | 34.14514 | 133.69766 | 32679 ft | 497 kts | 71° |
| 2026-05-01 08:42 | 34.15354 | 133.73782 | 32942 ft | 497 kts | 71° |
| 2026-05-01 08:42 | 34.16205 | 133.77847 | 33165 ft | 499 kts | 72° |
| 2026-05-01 08:42 | 34.17047 | 133.81891 | 33372 ft | 500 kts | 72° |
| 2026-05-01 08:42 | 34.17893 | 133.85950 | 33561 ft | 503 kts | 72° |
| 2026-05-01 08:43 | 34.18740 | 133.90027 | 33803 ft | 503 kts | 72° |
| 2026-05-01 08:43 | 34.19597 | 133.94150 | 34023 ft | 504 kts | 72° |
| 2026-05-01 08:43 | 34.20438 | 133.98228 | 34275 ft | 504 kts | 72° |
| 2026-05-01 08:43 | 34.21296 | 134.02373 | 34482 ft | 506 kts | 72° |
| 2026-05-01 08:44 | 34.22136 | 134.06467 | 34646 ft | 508 kts | 72° |
| 2026-05-01 08:44 | 34.22980 | 134.10629 | 34720 ft | 510 kts | 72° |
| 2026-05-01 08:44 | 34.24659 | 134.18971 | 34703 ft | 513 kts | 73° |
| 2026-05-01 08:45 | 34.26346 | 134.27416 | 34722 ft | 512 kts | 73° |
| 2026-05-01 08:45 | 34.28028 | 134.35847 | 34693 ft | 513 kts | 73° |
| 2026-05-01 08:46 | 34.29729 | 134.44391 | 34710 ft | 514 kts | 73° |
| 2026-05-01 08:46 | 34.31401 | 134.52847 | 34702 ft | 513 kts | 73° |
| 2026-05-01 08:47 | 34.32260 | 134.57201 | 34944 ft | 513 kts | 73° |
| 2026-05-01 08:47 | 34.33098 | 134.61447 | 34663 ft | 512 kts | 73° |
| 2026-05-01 08:47 | 34.33929 | 134.65672 | 34940 ft | 513 kts | 74° |
| 2026-05-01 08:47 | 34.34769 | 134.69934 | 34853 ft | 513 kts | 74° |
| 2026-05-01 08:48 | 34.36413 | 134.78357 | 34732 ft | 512 kts | 74° |
| 2026-05-01 08:48 | 34.38065 | 134.86859 | 34676 ft | 514 kts | 75° |
| 2026-05-01 08:49 | 34.39500 | 134.95371 | 34668 ft | 514 kts | 76° |
| 2026-05-01 08:49 | 34.40885 | 135.03957 | 34701 ft | 515 kts | 76° |
| 2026-05-01 08:50 | 34.42253 | 135.12451 | 34697 ft | 515 kts | 77° |
| 2026-05-01 08:50 | 34.43634 | 135.21021 | 34695 ft | 515 kts | 77° |
| 2026-05-01 08:51 | 34.45016 | 135.29672 | 34680 ft | 515 kts | 77° |
| 2026-05-01 08:51 | 34.46375 | 135.38222 | 34677 ft | 516 kts | 77° |
| 2026-05-01 08:52 | 34.47735 | 135.46786 | 34676 ft | 516 kts | 77° |
| 2026-05-01 08:52 | 34.49083 | 135.55330 | 34669 ft | 514 kts | 78° |
| 2026-05-01 08:53 | 34.50420 | 135.63858 | 34669 ft | 514 kts | 78° |
| 2026-05-01 08:53 | 34.51765 | 135.72417 | 34665 ft | 514 kts | 78° |
| 2026-05-01 08:54 | 34.53101 | 135.80980 | 34765 ft | 514 kts | 79° |
| 2026-05-01 08:54 | 34.53763 | 135.85249 | 34573 ft | 514 kts | 79° |
| 2026-05-01 08:54 | 34.54416 | 135.89490 | 34607 ft | 514 kts | 79° |
| 2026-05-01 08:55 | 34.55734 | 135.98024 | 34746 ft | 515 kts | 79° |
| 2026-05-01 08:55 | 34.57043 | 136.06583 | 34621 ft | 515 kts | 79° |
| 2026-05-01 08:56 | 34.58338 | 136.15083 | 34659 ft | 514 kts | 79° |
| 2026-05-01 08:56 | 34.59648 | 136.23631 | 34586 ft | 515 kts | 79° |
| 2026-05-01 08:57 | 34.60313 | 136.27945 | 34701 ft | 515 kts | 80° |
| 2026-05-01 08:57 | 34.60966 | 136.32198 | 34659 ft | 515 kts | 80° |
| 2026-05-01 08:57 | 34.62271 | 136.40778 | 34553 ft | 516 kts | 80° |
| 2026-05-01 08:58 | 34.63567 | 136.49341 | 34682 ft | 517 kts | 80° |
| 2026-05-01 08:58 | 34.64863 | 136.57941 | 34578 ft | 517 kts | 80° |
| 2026-05-01 08:59 | 34.66145 | 136.66489 | 34765 ft | 515 kts | 81° |
| 2026-05-01 08:59 | 34.67414 | 136.75003 | 34565 ft | 514 kts | 81° |
| 2026-05-01 09:00 | 34.68678 | 136.83543 | 34725 ft | 515 kts | 82° |
| 2026-05-01 09:00 | 34.69921 | 136.92120 | 34371 ft | 513 kts | 83° |
| 2026-05-01 09:01 | 34.70359 | 136.96417 | 34752 ft | 513 kts | 87° |
| 2026-05-01 09:01 | 34.70586 | 137.00720 | 34661 ft | 511 kts | 91° |
| 2026-05-01 09:01 | 34.70703 | 137.09315 | 34611 ft | 508 kts | 92° |
| 2026-05-01 09:02 | 34.70739 | 137.13612 | 34455 ft | 509 kts | 92° |
| 2026-05-01 09:02 | 34.70776 | 137.17956 | 34548 ft | 511 kts | 92° |
| 2026-05-01 09:02 | 34.70818 | 137.22308 | 34790 ft | 511 kts | 92° |
| 2026-05-01 09:02 | 34.70862 | 137.26570 | 34572 ft | 511 kts | 92° |
| 2026-05-01 09:03 | 34.70952 | 137.35280 | 34696 ft | 513 kts | 93° |
| 2026-05-01 09:03 | 34.70996 | 137.39636 | 34589 ft | 512 kts | 93° |
| 2026-05-01 09:03 | 34.71039 | 137.43967 | 34601 ft | 511 kts | 93° |
| 2026-05-01 09:04 | 34.71120 | 137.52650 | 34577 ft | 511 kts | 94° |
| 2026-05-01 09:04 | 34.71156 | 137.56957 | 34739 ft | 511 kts | 94° |
| 2026-05-01 09:04 | 34.71191 | 137.61313 | 34663 ft | 510 kts | 94° |
| 2026-05-01 09:05 | 34.71260 | 137.70010 | 34613 ft | 508 kts | 94° |
| 2026-05-01 09:05 | 34.71321 | 137.78668 | 34607 ft | 508 kts | 95° |
| 2026-05-01 09:06 | 34.71373 | 137.87346 | 34603 ft | 506 kts | 95° |
| 2026-05-01 09:06 | 34.71420 | 137.96051 | 34604 ft | 507 kts | 95° |
| 2026-05-01 09:07 | 34.71461 | 138.04785 | 34610 ft | 506 kts | 95° |
| 2026-05-01 09:07 | 34.71503 | 138.13452 | 34346 ft | 507 kts | 95° |
| 2026-05-01 09:08 | 34.71523 | 138.17761 | 33935 ft | 504 kts | 96° |
| 2026-05-01 09:08 | 34.71542 | 138.21999 | 33385 ft | 501 kts | 96° |
| 2026-05-01 09:08 | 34.71553 | 138.26190 | 32736 ft | 501 kts | 96° |
| 2026-05-01 09:08 | 34.71563 | 138.30452 | 32092 ft | 502 kts | 96° |
| 2026-05-01 09:09 | 34.71574 | 138.34691 | 31374 ft | 506 kts | 97° |
| 2026-05-01 09:09 | 34.71577 | 138.38933 | 30587 ft | 510 kts | 96° |
| 2026-05-01 09:09 | 34.71580 | 138.43230 | 29802 ft | 514 kts | 97° |
| 2026-05-01 09:09 | 34.71584 | 138.47578 | 28973 ft | 517 kts | 97° |
| 2026-05-01 09:10 | 34.71587 | 138.51971 | 28150 ft | 521 kts | 97° |
| 2026-05-01 09:10 | 34.71590 | 138.56348 | 27350 ft | 522 kts | 97° |
| 2026-05-01 09:10 | 34.71596 | 138.60702 | 26777 ft | 518 kts | 98° |
| 2026-05-01 09:10 | 34.71601 | 138.65045 | 26204 ft | 513 kts | 99° |
| 2026-05-01 09:11 | 34.71601 | 138.69359 | 25633 ft | 508 kts | 99° |
| 2026-05-01 09:11 | 34.71600 | 138.73663 | 25065 ft | 502 kts | 100° |
| 2026-05-01 09:11 | 34.71595 | 138.77911 | 24500 ft | 496 kts | 101° |
| 2026-05-01 09:11 | 34.71582 | 138.82065 | 23953 ft | 492 kts | 101° |
| 2026-05-01 09:12 | 34.71571 | 138.86188 | 23396 ft | 487 kts | 101° |
| 2026-05-01 09:12 | 34.71557 | 138.90239 | 22838 ft | 483 kts | 102° |
| 2026-05-01 09:12 | 34.71539 | 138.94304 | 22271 ft | 478 kts | 102° |
| 2026-05-01 09:12 | 34.71519 | 138.98285 | 21723 ft | 473 kts | 102° |
| 2026-05-01 09:13 | 34.71505 | 139.02249 | 21302 ft | 464 kts | 103° |
| 2026-05-01 09:13 | 34.71488 | 139.06126 | 21305 ft | 459 kts | 102° |
| 2026-05-01 09:13 | 34.71461 | 139.10019 | 21309 ft | 461 kts | 102° |
| 2026-05-01 09:13 | 34.71442 | 139.13898 | 21249 ft | 457 kts | 103° |
| 2026-05-01 09:14 | 34.71415 | 139.17746 | 20703 ft | 456 kts | 102° |
| 2026-05-01 09:14 | 34.71387 | 139.21568 | 20147 ft | 453 kts | 102° |
| 2026-05-01 09:14 | 34.71360 | 139.25357 | 19611 ft | 450 kts | 102° |
| 2026-05-01 09:14 | 34.71334 | 139.29128 | 19081 ft | 447 kts | 102° |
| 2026-05-01 09:15 | 34.71307 | 139.32910 | 18550 ft | 444 kts | 102° |
| 2026-05-01 09:15 | 34.71284 | 139.36629 | 18036 ft | 440 kts | 102° |
| 2026-05-01 09:15 | 34.71464 | 139.40324 | 17518 ft | 451 kts | 90° |
| 2026-05-01 09:15 | 34.72342 | 139.44020 | 16999 ft | 463 kts | 73° |
| 2026-05-01 09:16 | 34.73832 | 139.47540 | 16497 ft | 465 kts | 65° |
| 2026-05-01 09:16 | 34.75455 | 139.50925 | 15989 ft | 464 kts | 63° |
| 2026-05-01 09:16 | 34.77090 | 139.54283 | 15462 ft | 461 kts | 63° |
| 2026-05-01 09:17 | 34.80233 | 139.60996 | 14411 ft | 455 kts | 64° |
| 2026-05-01 09:17 | 34.81750 | 139.64314 | 13907 ft | 452 kts | 64° |
| 2026-05-01 09:17 | 34.85478 | 139.70245 | 13095 ft | 435 kts | 31° |
| 2026-05-01 09:18 | 34.88198 | 139.71751 | 13105 ft | 419 kts | 13° |
| 2026-05-01 09:18 | 34.93715 | 139.73628 | 13105 ft | 408 kts | 10° |
| 2026-05-01 09:19 | 34.98999 | 139.76155 | 13078 ft | 413 kts | 29° |
| 2026-05-01 09:19 | 35.01274 | 139.78334 | 13086 ft | 414 kts | 42° |
| 2026-05-01 09:19 | 35.03307 | 139.80780 | 13086 ft | 414 kts | 46° |
| 2026-05-01 09:20 | 35.07327 | 139.85837 | 13082 ft | 413 kts | 46° |
| 2026-05-01 09:20 | 35.11417 | 139.90775 | 13065 ft | 414 kts | 44° |
| 2026-05-01 09:21 | 35.15555 | 139.95699 | 12449 ft | 417 kts | 45° |
| 2026-05-01 09:21 | 35.17639 | 139.98192 | 11900 ft | 417 kts | 44° |
| 2026-05-01 09:21 | 35.21776 | 140.03145 | 10961 ft | 412 kts | 44° |
| 2026-05-01 09:22 | 35.25745 | 140.07918 | 10493 ft | 390 kts | 45° |
| 2026-05-01 09:22 | 35.29504 | 140.12436 | 10142 ft | 366 kts | 45° |
| 2026-05-01 09:23 | 35.31291 | 140.14597 | 10028 ft | 353 kts | 45° |
| 2026-05-01 09:23 | 35.34746 | 140.18759 | 9388 ft | 345 kts | 44° |
| 2026-05-01 09:24 | 35.38721 | 140.21924 | 8250 ft | 335 kts | 3° |
| 2026-05-01 09:24 | 35.40976 | 140.21922 | 7962 ft | 314 kts | 347° |
| 2026-05-01 09:24 | 35.45308 | 140.21286 | 7987 ft | 313 kts | 346° |
| 2026-05-01 09:25 | 35.49634 | 140.20761 | 7933 ft | 315 kts | 348° |
| 2026-05-01 09:25 | 35.53989 | 140.20097 | 7101 ft | 311 kts | 341° |
| 2026-05-01 09:26 | 35.56061 | 140.19450 | 6697 ft | 308 kts | 337° |
| 2026-05-01 09:26 | 35.59528 | 140.16960 | 5870 ft | 274 kts | 295° |
| 2026-05-01 09:26 | 35.60266 | 140.14931 | 5802 ft | 247 kts | 276° |
| 2026-05-01 09:27 | 35.60547 | 140.11083 | 5721 ft | 211 kts | 263° |
| 2026-05-01 09:27 | 35.60549 | 140.09297 | 5631 ft | 210 kts | 262° |
| 2026-05-01 09:27 | 35.60538 | 140.07510 | 5454 ft | 207 kts | 261° |
| 2026-05-01 09:28 | 35.60524 | 140.05748 | 5144 ft | 206 kts | 261° |
| 2026-05-01 09:28 | 35.60510 | 140.04019 | 4862 ft | 204 kts | 262° |
| 2026-05-01 09:28 | 35.60498 | 140.02275 | 4607 ft | 199 kts | 262° |
| 2026-05-01 09:28 | 35.60490 | 140.00624 | 4347 ft | 192 kts | 261° |
| 2026-05-01 09:29 | 35.60474 | 139.97502 | 3727 ft | 171 kts | 260° |
| 2026-05-01 09:29 | 35.60466 | 139.96075 | 3523 ft | 158 kts | 259° |
| 2026-05-01 09:30 | 35.60449 | 139.93536 | 3079 ft | 145 kts | 261° |
| 2026-05-01 09:30 | 35.60440 | 139.92313 | 2883 ft | 145 kts | 260° |
| 2026-05-01 09:30 | 35.60428 | 139.89824 | 2476 ft | 146 kts | 261° |
| 2026-05-01 09:31 | 35.60421 | 139.88576 | 2264 ft | 148 kts | 261° |
| 2026-05-01 09:31 | 35.60417 | 139.87303 | 2052 ft | 143 kts | 261° |
| 2026-05-01 09:31 | 35.60406 | 139.85046 | 1638 ft | 128 kts | 261° |
| 2026-05-01 09:32 | 35.60388 | 139.83937 | 1442 ft | 130 kts | 259° |
| 2026-05-01 09:32 | 35.60110 | 139.81789 | 1012 ft | 126 kts | 245° |
| 2026-05-01 09:32 | 35.59755 | 139.80818 | 799 ft | 123 kts | 235° |
| 2026-05-01 09:33 | 35.59237 | 139.79985 | 606 ft | 122 kts | 223° |
| 2026-05-01 09:33 | 35.58604 | 139.79300 | 515 ft | 121 kts | 215° |
| 2026-05-01 09:33 | 35.57199 | 139.78099 | 183 ft | 123 kts | 213° |
| 2026-05-01 09:34 | 35.56494 | 139.77493 | 29 ft | 122 kts | 212° |
| 2026-05-01 09:34 | 35.55911 | 139.76993 | 28 ft | 78 kts | 215° |
| 2026-05-01 09:34 | 35.55434 | 139.76642 | 28 ft | 15 kts | 193° |
| 2026-05-01 09:35 | 35.55353 | 139.76623 | 28 ft | 8 kts | 189° |
| 2026-05-01 09:35 | 35.55289 | 139.76724 | 28 ft | 11 kts | 55° |
| 2026-05-01 09:35 | 35.55368 | 139.76798 | 28 ft | 16 kts | 35° |
| 2026-05-01 09:36 | 35.55479 | 139.76892 | 28 ft | 21 kts | 35° |
| 2026-05-01 09:36 | 35.55615 | 139.77010 | 28 ft | 25 kts | 35° |
| 2026-05-01 09:36 | 35.55773 | 139.77145 | 28 ft | 29 kts | 35° |
| 2026-05-01 09:36 | 35.55913 | 139.77269 | 28 ft | 16 kts | 45° |
| 2026-05-01 09:37 | 35.55969 | 139.77377 | 28 ft | 16 kts | 60° |
| 2026-05-01 09:37 | 35.56110 | 139.77679 | 28 ft | 24 kts | 60° |
| 2026-05-01 09:37 | 35.56202 | 139.77870 | 28 ft | 27 kts | 60° |
| 2026-05-01 09:38 | 35.56339 | 139.78189 | 28 ft | 12 kts | 103° |
| 2026-05-01 09:38 | 35.56278 | 139.78256 | 28 ft | 12 kts | 151° |
| 2026-05-01 09:38 | 35.56191 | 139.78316 | 28 ft | 16 kts | 150° |
| 2026-05-01 09:39 | 35.55944 | 139.78493 | 28 ft | 22 kts | 150° |
| 2026-05-01 09:39 | 35.55829 | 139.78572 | 28 ft | 10 kts | 164° |
| 2026-05-01 09:39 | 35.55786 | 139.78540 | 28 ft | 8 kts | 238° |
| 2026-05-01 09:40 | 35.55766 | 139.78499 | 28 ft | 3 kts | 239° |
| 2026-05-01 09:40 | 35.55759 | 139.78484 | 28 ft | 0 kts | 239° |